createdAt,value
2023-05-08T00:01:03.655Z,2.15
2023-05-08T00:03:32.823Z,1.50
2023-05-08T00:06:05.118Z,2.00
2023-05-08T00:08:34.370Z,2.10
2023-05-08T00:11:03.606Z,2.17
2023-05-08T00:13:32.865Z,1.85
2023-05-08T00:16:03.627Z,1.92
2023-05-08T00:18:32.671Z,1.80
2023-05-08T00:21:01.690Z,1.88
2023-05-08T00:23:30.750Z,1.80
2023-05-08T00:25:59.970Z,1.77
2023-05-08T00:28:29.099Z,1.80
2023-05-08T00:31:03.268Z,1.52
2023-05-08T00:33:32.489Z,1.52
2023-05-08T00:36:02.328Z,1.60
2023-05-08T00:38:33.151Z,1.85
2023-05-08T00:41:02.988Z,1.70
2023-05-08T00:43:32.122Z,1.98
2023-05-08T00:46:05.034Z,1.90
2023-05-08T00:48:36.130Z,1.95
2023-05-08T00:51:07.593Z,2.03
2023-05-08T00:53:40.168Z,1.60
2023-05-08T00:56:13.659Z,1.90
2023-05-08T00:58:43.340Z,1.90
2023-05-08T01:01:14.289Z,1.58
2023-05-08T01:03:44.095Z,1.88
2023-05-08T01:06:13.185Z,1.58
2023-05-08T01:08:43.227Z,1.70
2023-05-08T01:11:22.960Z,1.80
2023-05-08T01:14:08.099Z,1.63
2023-05-08T01:16:45.017Z,1.80
2023-05-08T01:19:30.471Z,1.60
2023-05-08T01:22:08.567Z,1.70
2023-05-08T01:25:24.276Z,1.40
2023-05-08T01:28:18.678Z,1.65
2023-05-08T01:31:06.296Z,1.50
2023-05-08T01:33:44.844Z,1.63
2023-05-08T01:36:21.911Z,2.05
2023-05-08T01:39:06.817Z,1.60
2023-05-08T01:41:38.134Z,1.60
2023-05-08T01:44:14.950Z,1.80
2023-05-08T01:46:45.520Z,1.50
2023-05-08T01:49:26.194Z,1.77
2023-05-08T01:52:01.835Z,1.70
2023-05-08T01:54:37.490Z,1.80
2023-05-08T01:57:07.629Z,1.80
2023-05-08T01:59:38.029Z,1.83
2023-05-08T02:02:08.248Z,2.15
2023-05-08T02:04:39.792Z,1.85
2023-05-08T02:07:09.598Z,1.70
2023-05-08T02:09:40.224Z,2.05
2023-05-08T02:12:11.176Z,1.70
2023-05-08T02:14:41.195Z,1.75
2023-05-08T02:17:12.748Z,1.70
2023-05-08T02:19:45.843Z,1.70
2023-05-08T02:22:21.320Z,1.73
2023-05-08T02:24:54.598Z,1.67
2023-05-08T02:27:27.476Z,2.00
2023-05-08T02:29:58.495Z,2.08
2023-05-08T02:32:30.034Z,2.05
2023-05-08T02:35:03.594Z,2.00
2023-05-08T02:37:35.342Z,2.58
2023-05-08T02:40:07.659Z,2.33
2023-05-08T02:42:39.704Z,2.63
2023-05-08T02:45:10.103Z,2.20
2023-05-08T02:47:45.917Z,2.20
2023-05-08T02:50:22.231Z,2.22
2023-05-08T02:52:54.695Z,1.80
2023-05-08T02:55:37.638Z,2.13
2023-05-08T02:58:13.918Z,2.13
2023-05-08T03:00:50.813Z,2.30
2023-05-08T03:03:25.519Z,2.20
2023-05-08T03:05:58.928Z,2.13
2023-05-08T03:08:31.839Z,2.25
2023-05-08T03:11:09.685Z,2.50
2023-05-08T03:13:42.874Z,1.95
2023-05-08T03:16:16.494Z,2.10
2023-05-08T03:18:52.341Z,2.20
2023-05-08T03:21:29.137Z,2.28
2023-05-08T03:24:02.819Z,2.30
2023-05-08T03:26:33.453Z,2.08
2023-05-08T03:29:05.169Z,2.20
2023-05-08T03:31:36.837Z,2.40
2023-05-08T03:34:08.139Z,2.20
2023-05-08T03:36:39.491Z,2.40
2023-05-08T03:39:09.614Z,2.38
2023-05-08T03:41:38.992Z,2.40
2023-05-08T03:44:08.925Z,2.42
2023-05-08T03:46:39.204Z,2.22
2023-05-08T03:49:10.269Z,2.78
2023-05-08T03:51:41.624Z,2.70
2023-05-08T03:54:10.584Z,2.58
2023-05-08T03:56:39.640Z,2.30
2023-05-08T03:59:16.095Z,2.40
2023-05-08T04:01:54.016Z,2.40
2023-05-08T04:04:31.838Z,2.33
2023-05-08T04:07:09.313Z,2.30
2023-05-08T04:09:45.245Z,2.60
2023-05-08T04:12:20.618Z,2.55
2023-05-08T04:14:55.722Z,2.63
2023-05-08T04:17:35.816Z,2.83
2023-05-08T04:20:10.310Z,2.85
2023-05-08T04:22:43.658Z,3.40
2023-05-08T04:25:16.338Z,3.80
2023-05-08T04:27:46.354Z,4.85
2023-05-08T04:30:16.030Z,4.50
2023-05-08T04:32:46.684Z,4.43
2023-05-08T04:35:16.411Z,3.40
2023-05-08T04:37:48.358Z,2.80
2023-05-08T04:40:17.373Z,2.50
2023-05-08T04:42:48.109Z,2.72
2023-05-08T04:45:17.428Z,2.75
2023-05-08T04:47:46.544Z,2.45
2023-05-08T04:50:15.619Z,2.40
2023-05-08T04:52:46.402Z,2.50
2023-05-08T04:55:15.498Z,2.40
2023-05-08T04:57:45.382Z,2.53
2023-05-08T05:00:15.436Z,2.60
2023-05-08T05:02:44.540Z,2.20
2023-05-08T05:05:13.873Z,2.58
2023-05-08T05:07:43.073Z,2.40
2023-05-08T05:10:14.039Z,2.40
2023-05-08T05:12:43.112Z,2.42
2023-05-08T05:15:13.662Z,2.47
2023-05-08T05:17:43.739Z,3.05
2023-05-08T05:20:14.196Z,2.45
2023-05-08T05:22:43.381Z,2.55
2023-05-08T05:25:14.419Z,2.65
2023-05-08T05:27:43.607Z,2.63
2023-05-08T05:30:13.438Z,2.42
2023-05-08T05:32:43.113Z,2.40
2023-05-08T05:35:12.653Z,2.78
2023-05-08T05:37:42.122Z,2.35
2023-05-08T05:40:14.287Z,2.53
2023-05-08T05:42:43.371Z,2.40
2023-05-08T05:45:13.453Z,2.30
2023-05-08T05:47:47.593Z,2.50
2023-05-08T05:50:17.433Z,2.83
2023-05-08T05:52:46.540Z,2.60
2023-05-08T05:55:17.234Z,2.80
2023-05-08T05:57:46.237Z,2.50
2023-05-08T06:00:16.179Z,2.60
2023-05-08T06:02:45.294Z,2.72
2023-05-08T06:05:14.667Z,2.60
2023-05-08T06:07:43.788Z,2.55
2023-05-08T06:10:13.453Z,2.58
2023-05-08T06:12:44.215Z,2.80
2023-05-08T06:15:15.647Z,2.90
2023-05-08T06:17:44.701Z,2.55
2023-05-08T06:20:13.934Z,2.83
2023-05-08T06:22:43.410Z,2.72
2023-05-08T06:25:12.767Z,2.92
2023-05-08T06:27:43.517Z,2.75
2023-05-08T06:30:13.386Z,2.90
2023-05-08T06:32:42.424Z,3.00
2023-05-08T06:35:13.157Z,2.88
2023-05-08T06:37:42.315Z,3.17
2023-05-08T06:40:12.987Z,2.80
2023-05-08T06:42:43.798Z,3.20
2023-05-08T06:45:13.283Z,3.40
2023-05-08T06:47:42.620Z,3.20
2023-05-08T06:50:12.425Z,3.58
2023-05-08T06:52:41.450Z,3.13
2023-05-08T06:55:11.152Z,2.97
2023-05-08T06:57:40.408Z,2.85
2023-05-08T07:00:12.617Z,2.83
2023-05-08T07:02:41.913Z,3.10
2023-05-08T07:05:11.730Z,2.92
2023-05-08T07:07:40.926Z,2.50
2023-05-08T07:10:10.802Z,2.78
2023-05-08T07:12:39.951Z,2.95
2023-05-08T07:15:24.785Z,2.60
2023-05-08T07:17:55.294Z,2.67
2023-05-08T07:20:25.307Z,3.00
2023-05-08T07:22:54.405Z,2.65
2023-05-08T07:25:23.432Z,2.95
2023-05-08T07:27:52.713Z,2.70
2023-05-08T07:30:23.606Z,3.00
2023-05-08T07:32:52.711Z,2.90
2023-05-08T07:35:21.740Z,3.00
2023-05-08T07:37:50.892Z,2.90
2023-05-08T07:40:20.024Z,2.70
2023-05-08T07:42:49.151Z,2.50
2023-05-08T07:45:18.332Z,2.95
2023-05-08T07:47:56.771Z,2.80
2023-05-08T07:50:27.372Z,2.70
2023-05-08T07:52:56.421Z,2.70
2023-05-08T07:55:25.664Z,3.33
2023-05-08T07:57:54.877Z,2.67
2023-05-08T08:00:24.113Z,2.83
2023-05-08T08:02:55.138Z,2.78
2023-05-08T08:05:24.535Z,2.75
2023-05-08T08:07:54.621Z,2.90
2023-05-08T08:10:23.931Z,2.78
2023-05-08T08:12:53.272Z,2.85
2023-05-08T08:15:22.734Z,2.78
2023-05-08T08:17:52.047Z,3.33
2023-05-08T08:20:23.149Z,2.80
2023-05-08T08:22:52.360Z,2.78
2023-05-08T08:25:21.702Z,2.72
2023-05-08T08:27:50.687Z,2.67
2023-05-08T08:30:20.100Z,3.20
2023-05-08T08:32:49.213Z,2.90
2023-05-08T08:35:18.702Z,3.13
2023-05-08T08:37:49.673Z,3.40
2023-05-08T08:40:18.706Z,3.20
2023-05-08T08:42:48.221Z,3.20
2023-05-08T08:45:17.476Z,3.50
2023-05-08T08:47:49.177Z,2.78
2023-05-08T08:50:20.837Z,3.13
2023-05-08T08:53:07.154Z,2.88
2023-05-08T08:55:40.745Z,2.90
2023-05-08T08:58:19.221Z,2.97
2023-05-08T09:00:49.364Z,3.25
2023-05-08T09:03:18.940Z,3.10
2023-05-08T09:05:52.396Z,3.20
2023-05-08T09:08:23.225Z,2.95
2023-05-08T09:10:53.397Z,3.20
2023-05-08T09:13:22.448Z,3.50
2023-05-08T09:15:51.793Z,3.17
2023-05-08T09:18:21.113Z,3.42
2023-05-08T09:20:51.596Z,3.22
2023-05-08T09:23:22.514Z,4.07
2023-05-08T09:25:51.692Z,3.30
2023-05-08T09:28:21.819Z,3.80
2023-05-08T09:30:52.694Z,4.05
2023-05-08T09:33:22.688Z,3.50
2023-05-08T09:35:52.226Z,3.58
2023-05-08T09:38:39.311Z,4.00
2023-05-08T09:41:10.182Z,3.78
2023-05-08T09:43:39.703Z,3.30
2023-05-08T09:46:25.033Z,3.60
2023-05-08T09:48:55.026Z,3.40
2023-05-08T09:51:24.944Z,3.35
2023-05-08T09:53:57.263Z,3.08
2023-05-08T09:56:33.952Z,3.20
2023-05-08T09:59:04.952Z,3.42
2023-05-08T10:01:36.288Z,3.30
2023-05-08T10:04:06.740Z,3.30
2023-05-08T10:06:37.246Z,3.30
2023-05-08T10:09:13.156Z,3.88
2023-05-08T10:11:43.323Z,3.35
2023-05-08T10:14:12.260Z,3.35
2023-05-08T10:16:45.235Z,3.30
2023-05-08T10:19:16.376Z,3.55
2023-05-08T10:21:49.057Z,3.40
2023-05-08T10:24:21.273Z,3.30
2023-05-08T10:27:07.340Z,3.40
2023-05-08T10:29:48.779Z,3.72
2023-05-08T10:32:22.044Z,3.25
2023-05-08T10:34:54.548Z,3.60
2023-05-08T10:37:24.060Z,3.40
2023-05-08T10:39:56.594Z,3.65
2023-05-08T10:42:26.645Z,3.65
2023-05-08T10:44:56.164Z,3.80
2023-05-08T10:47:35.009Z,3.40
2023-05-08T10:50:14.633Z,3.67
2023-05-08T10:52:53.603Z,3.22
2023-05-08T10:55:29.389Z,3.20
2023-05-08T10:58:06.046Z,3.22
2023-05-08T11:01:09.725Z,3.63
2023-05-08T11:03:42.940Z,3.00
2023-05-08T11:06:12.450Z,3.30
2023-05-08T11:09:01.814Z,3.10
2023-05-08T11:11:34.533Z,3.30
2023-05-08T11:14:14.958Z,3.83
2023-05-08T11:17:09.146Z,3.40
2023-05-08T11:19:39.364Z,3.40
2023-05-08T11:22:16.266Z,3.90
2023-05-08T11:25:01.086Z,3.58
2023-05-08T11:28:02.126Z,3.42
2023-05-08T11:30:40.255Z,3.28
2023-05-08T11:33:16.319Z,3.38
2023-05-08T11:35:51.216Z,3.45
2023-05-08T11:38:25.083Z,3.63
2023-05-08T11:41:08.707Z,3.70
2023-05-08T11:44:21.319Z,3.88
2023-05-08T11:46:54.277Z,3.40
2023-05-08T11:49:28.207Z,3.72
2023-05-08T11:52:00.766Z,3.50
2023-05-08T11:54:32.427Z,3.97
2023-05-08T11:57:02.532Z,3.80
2023-05-08T11:59:37.649Z,3.60
2023-05-08T12:02:09.873Z,3.50
2023-05-08T12:04:48.507Z,3.88
2023-05-08T12:07:17.814Z,4.00
2023-05-08T12:09:48.431Z,3.75
2023-05-08T12:12:17.475Z,3.72
2023-05-08T12:14:50.253Z,3.72
2023-05-08T12:17:20.959Z,4.00
2023-05-08T12:19:50.103Z,3.80
2023-05-08T12:22:19.320Z,3.97
2023-05-08T12:24:48.435Z,3.53
2023-05-08T12:27:17.762Z,3.90
2023-05-08T12:29:47.489Z,4.20
2023-05-08T12:32:16.702Z,3.88
2023-05-08T12:34:47.630Z,3.78
2023-05-08T12:37:28.025Z,3.85
2023-05-08T12:39:57.280Z,4.00
2023-05-08T12:42:44.023Z,3.60
2023-05-08T12:45:19.576Z,3.50
2023-05-08T12:47:49.790Z,3.80
2023-05-08T12:50:26.054Z,3.97
2023-05-08T12:52:55.192Z,3.60
2023-05-08T12:55:25.703Z,3.70
2023-05-08T12:58:02.144Z,3.70
2023-05-08T13:00:41.874Z,3.42
2023-05-08T13:03:12.014Z,4.03
2023-05-08T13:05:45.549Z,3.63
2023-05-08T13:08:14.805Z,4.20
2023-05-08T13:10:48.832Z,4.68
2023-05-08T13:13:19.593Z,4.97
2023-05-08T13:15:49.263Z,4.85
2023-05-08T13:18:18.938Z,4.68
2023-05-08T13:20:49.699Z,4.97
2023-05-08T13:23:18.926Z,4.38
2023-05-08T13:25:48.383Z,4.70
2023-05-08T13:28:17.397Z,4.47
2023-05-08T13:30:46.469Z,4.60
2023-05-08T13:33:15.734Z,4.20
2023-05-08T13:35:44.888Z,4.32
2023-05-08T13:38:15.560Z,4.20
2023-05-08T13:40:44.806Z,4.00
2023-05-08T13:43:13.777Z,4.05
2023-05-08T13:45:43.034Z,4.13
2023-05-08T13:48:12.124Z,4.20
2023-05-08T13:50:41.274Z,4.28
2023-05-08T13:53:10.466Z,4.10
2023-05-08T13:55:41.473Z,4.15
2023-05-08T13:58:10.574Z,4.53
2023-05-08T14:00:40.267Z,4.50
2023-05-08T14:03:09.476Z,4.68
2023-05-08T14:05:38.574Z,4.10
2023-05-08T14:08:07.648Z,4.50
2023-05-08T14:10:36.751Z,4.60
2023-05-08T14:13:07.474Z,4.20
2023-05-08T14:15:37.594Z,4.40
2023-05-08T14:18:07.119Z,4.32
2023-05-08T14:20:36.327Z,4.40
2023-05-08T14:23:05.317Z,5.38
2023-05-08T14:25:34.406Z,5.88
2023-05-08T14:28:03.374Z,4.97
2023-05-08T14:30:33.961Z,5.57
2023-05-08T14:33:03.083Z,4.30
2023-05-08T14:35:33.870Z,4.35
2023-05-08T14:38:02.872Z,4.10
2023-05-08T14:40:32.013Z,4.53
2023-05-08T14:43:01.084Z,4.32
2023-05-08T14:45:30.248Z,4.38
2023-05-08T14:48:01.259Z,4.75
2023-05-08T14:50:30.346Z,6.13
2023-05-08T14:52:59.493Z,5.97
2023-05-08T14:55:28.856Z,5.85
2023-05-08T14:57:58.082Z,8.30
2023-05-08T15:00:27.194Z,8.80
2023-05-08T15:02:56.959Z,8.85
2023-05-08T15:05:28.070Z,8.70
2023-05-08T15:07:58.128Z,9.18
2023-05-08T15:10:27.212Z,8.88
2023-05-08T15:12:56.326Z,10.27
2023-05-08T15:15:25.460Z,11.82
2023-05-08T15:17:54.495Z,9.80
2023-05-08T15:20:23.885Z,10.38
2023-05-08T15:22:55.457Z,8.73
2023-05-08T15:25:26.619Z,9.20
2023-05-08T15:27:56.161Z,8.95
2023-05-08T15:30:26.520Z,8.82
2023-05-08T15:32:55.562Z,9.07
2023-05-08T15:35:24.572Z,7.93
2023-05-08T15:37:55.211Z,8.05
2023-05-08T15:40:24.245Z,9.70
2023-05-08T15:42:53.331Z,9.02
2023-05-08T15:45:22.548Z,9.38
2023-05-08T15:47:51.529Z,7.40
2023-05-08T15:50:20.642Z,8.90
2023-05-08T15:52:49.876Z,9.25
2023-05-08T15:55:21.405Z,8.57
2023-05-08T15:57:51.691Z,9.50
2023-05-08T16:00:25.001Z,9.55
2023-05-08T16:02:54.339Z,8.65
2023-05-08T16:05:23.421Z,8.57
2023-05-08T16:07:52.502Z,8.93
2023-05-08T16:10:23.483Z,8.82
2023-05-08T16:12:52.498Z,7.70
2023-05-08T16:15:21.636Z,8.55
2023-05-08T16:17:50.832Z,9.75
2023-05-08T16:20:20.003Z,8.10
2023-05-08T16:22:48.981Z,9.00
2023-05-08T16:25:17.949Z,8.40
2023-05-08T16:27:48.543Z,7.88
2023-05-08T16:30:17.750Z,8.27
2023-05-08T16:32:47.078Z,6.65
2023-05-08T16:35:16.645Z,6.30
2023-05-08T16:37:46.117Z,7.70
2023-05-08T16:40:15.848Z,7.47
2023-05-08T16:42:44.872Z,8.15
2023-05-08T16:45:15.839Z,8.00
2023-05-08T16:47:45.095Z,8.13
2023-05-08T16:50:14.243Z,7.68
2023-05-08T16:52:43.263Z,7.57
2023-05-08T16:55:13.101Z,7.90
2023-05-08T16:57:42.506Z,7.28
2023-05-08T17:00:13.195Z,6.50
2023-05-08T17:02:44.091Z,7.07
2023-05-08T17:05:13.402Z,7.07
2023-05-08T17:07:42.713Z,7.38
2023-05-08T17:10:13.680Z,8.02
2023-05-08T17:12:42.811Z,8.68
2023-05-08T17:15:12.816Z,9.38
2023-05-08T17:17:44.000Z,8.40
2023-05-08T17:20:15.646Z,8.25
2023-05-08T17:22:45.300Z,8.02
2023-05-08T17:25:14.330Z,8.73
2023-05-08T17:27:43.423Z,8.00
2023-05-08T17:30:13.482Z,6.90
2023-05-08T17:32:44.361Z,7.88
2023-05-08T17:35:13.500Z,8.30
2023-05-08T17:37:42.516Z,8.27
2023-05-08T17:40:12.697Z,7.95
2023-05-08T17:42:41.856Z,8.35
2023-05-08T17:45:11.438Z,8.70
2023-05-08T17:47:41.127Z,9.23
2023-05-08T17:50:12.776Z,8.73
2023-05-08T17:52:41.988Z,8.30
2023-05-08T17:55:11.835Z,10.68
2023-05-08T17:57:40.904Z,8.13
2023-05-08T18:00:11.226Z,7.95
2023-05-08T18:02:40.481Z,9.52
2023-05-08T18:05:11.997Z,9.77
2023-05-08T18:07:41.069Z,9.15
2023-05-08T18:10:10.844Z,10.32
2023-05-08T18:12:39.953Z,9.85
2023-05-08T18:15:09.907Z,9.30
2023-05-08T18:17:38.952Z,8.32
2023-05-08T18:20:10.229Z,9.45
2023-05-08T18:22:40.890Z,8.48
2023-05-08T18:25:10.366Z,9.77
2023-05-08T18:27:40.191Z,9.60
2023-05-08T18:30:10.437Z,9.38
2023-05-08T18:32:39.471Z,8.10
2023-05-08T18:35:09.339Z,9.70
2023-05-08T18:37:40.220Z,9.32
2023-05-08T18:40:10.495Z,9.02
2023-05-08T18:42:39.582Z,9.18
2023-05-08T18:45:10.267Z,9.00
2023-05-08T18:47:39.682Z,11.05
2023-05-08T18:50:10.210Z,8.75
2023-05-08T18:52:40.940Z,9.35
2023-05-08T18:55:10.657Z,9.60
2023-05-08T18:57:39.745Z,9.02
2023-05-08T19:00:09.859Z,8.63
2023-05-08T19:02:39.018Z,8.50
2023-05-08T19:05:08.822Z,8.50
2023-05-08T19:07:39.727Z,8.43
2023-05-08T19:10:10.371Z,9.02
2023-05-08T19:12:39.458Z,8.52
2023-05-08T19:15:14.368Z,8.52
2023-05-08T19:17:43.729Z,7.93
2023-05-08T19:20:14.667Z,9.30
2023-05-08T19:22:47.750Z,8.20
2023-05-08T19:25:17.135Z,8.55
2023-05-08T19:27:46.595Z,9.45
2023-05-08T19:30:16.154Z,8.80
2023-05-08T19:32:45.312Z,8.45
2023-05-08T19:35:14.315Z,9.30
2023-05-08T19:37:45.180Z,8.98
2023-05-08T19:40:17.016Z,7.32
2023-05-08T19:42:46.721Z,7.65
2023-05-08T19:45:17.284Z,8.10
2023-05-08T19:47:50.387Z,9.27
2023-05-08T19:50:19.795Z,9.82
2023-05-08T19:52:50.602Z,9.43
2023-05-08T19:55:19.953Z,9.15
2023-05-08T19:57:49.216Z,9.23
2023-05-08T20:00:18.797Z,9.63
2023-05-08T20:02:47.967Z,10.55
2023-05-08T20:05:22.684Z,10.10
2023-05-08T20:07:54.253Z,11.07
2023-05-08T20:10:23.605Z,8.73
2023-05-08T20:12:53.204Z,10.60
2023-05-08T20:15:22.465Z,10.13
2023-05-08T20:17:51.717Z,10.25
2023-05-08T20:20:20.850Z,10.63
2023-05-08T20:22:50.250Z,8.55
2023-05-08T20:25:21.118Z,10.27
2023-05-08T20:27:50.314Z,10.98
2023-05-08T20:30:20.502Z,11.02
2023-05-08T20:32:51.261Z,11.02
2023-05-08T20:35:20.672Z,11.05
2023-05-08T20:37:50.234Z,9.57
2023-05-08T20:40:21.040Z,9.95
2023-05-08T20:42:50.220Z,9.15
2023-05-08T20:45:19.430Z,8.15
2023-05-08T20:47:48.746Z,11.27
2023-05-08T20:50:17.994Z,8.57
2023-05-08T20:52:46.946Z,7.55
2023-05-08T20:55:16.275Z,9.43
2023-05-08T20:57:47.364Z,8.60
2023-05-08T21:00:17.054Z,10.45
2023-05-08T21:02:46.373Z,8.00
2023-05-08T21:05:15.745Z,8.32
2023-05-08T21:07:45.069Z,8.80
2023-05-08T21:10:14.695Z,7.40
2023-05-08T21:12:46.518Z,9.02
2023-05-08T21:15:15.642Z,8.02
2023-05-08T21:17:44.867Z,7.50
2023-05-08T21:20:14.720Z,7.40
2023-05-08T21:22:43.985Z,5.72
2023-05-08T21:25:14.661Z,6.88
2023-05-08T21:27:45.909Z,5.80
2023-05-08T21:30:15.921Z,6.03
2023-05-08T21:32:45.648Z,5.88
2023-05-08T21:35:15.141Z,4.13
2023-05-08T21:37:44.331Z,5.22
2023-05-08T21:40:13.726Z,4.95
2023-05-08T21:42:42.869Z,5.28
2023-05-08T21:45:14.325Z,4.65
2023-05-08T21:47:43.459Z,4.72
2023-05-08T21:50:12.930Z,4.15
2023-05-08T21:52:41.933Z,4.22
2023-05-08T21:55:11.810Z,4.32
2023-05-08T21:57:41.292Z,4.13
2023-05-08T22:00:13.253Z,4.50
2023-05-08T22:02:42.599Z,4.32
2023-05-08T22:05:12.474Z,3.80
2023-05-08T22:07:41.946Z,3.85
2023-05-08T22:10:12.530Z,4.68
2023-05-08T22:12:41.793Z,3.80
2023-05-08T22:15:28.427Z,4.32
2023-05-08T22:17:58.881Z,4.38
2023-05-08T22:20:28.185Z,4.45
2023-05-08T22:22:57.530Z,3.80
2023-05-08T22:25:27.533Z,3.83
2023-05-08T22:27:56.599Z,5.03
2023-05-08T22:30:27.261Z,4.13
2023-05-08T22:32:58.278Z,3.92
2023-05-08T22:35:28.816Z,4.32
2023-05-08T22:38:00.685Z,4.43
2023-05-08T22:40:38.323Z,5.43
2023-05-08T22:43:07.493Z,5.00
2023-05-08T22:45:38.522Z,4.90
2023-05-08T22:48:08.235Z,4.00
2023-05-08T22:50:37.765Z,4.13
2023-05-08T22:53:09.243Z,4.50
2023-05-08T22:55:38.586Z,4.05
2023-05-08T22:58:07.889Z,4.43
2023-05-08T23:00:38.644Z,3.90
2023-05-08T23:03:07.842Z,4.57
2023-05-08T23:05:38.686Z,4.20
2023-05-08T23:08:11.329Z,4.40
2023-05-08T23:10:40.502Z,4.00
2023-05-08T23:13:09.619Z,4.38
2023-05-08T23:15:40.508Z,4.30
2023-05-08T23:18:09.839Z,4.32
2023-05-08T23:20:38.985Z,4.00
2023-05-08T23:23:08.730Z,3.92
2023-05-08T23:25:37.743Z,4.10
2023-05-08T23:28:06.996Z,4.43
2023-05-08T23:30:36.044Z,4.03
2023-05-08T23:33:07.101Z,4.70
2023-05-08T23:35:36.662Z,3.53
2023-05-08T23:38:07.972Z,3.97
2023-05-08T23:40:37.303Z,3.88
2023-05-08T23:43:07.071Z,3.90
2023-05-08T23:45:36.369Z,3.70
2023-05-08T23:48:08.735Z,3.65
2023-05-08T23:50:37.871Z,3.80
2023-05-08T23:53:06.854Z,3.45
2023-05-08T23:55:40.104Z,3.20
2023-05-08T23:58:09.291Z,3.22
